Terminal Aerodrome Forecast
Issued by NWS Missoula, MT

Home | Current Version | Previous Version | Text Only | Print | Product List | Glossary On
Versions: 1 2 3 4 5 6 7 8 9 10 11 12 13 14
160
FTUS45 KMSO 210520
TAFBTM
TAF
KBTM 210520Z 2106/2206 VRB03KT P6SM SKC
     FM210900 VRB03KT P6SM VCSH BKN060
     FM211100 VRB03KT 6SM -SN OVC025
     FM211600 24009G18KT P6SM VCSH BKN060=

USA.gov is the U.S. government's official web portal to all federal, state and local government web resources and services.